Overview Statistics Trail Chart Weather Telemetry Raw packets
 

This is the latest recevied weather packets stored in our database for station/object KG4GJX. If no packets are shown the sender has not sent any weather packets the latest 10 day(s).

<< 8 9 10 11 12 13 14 >>
Time Temp. Humidity Pressure Rain* Wind** Luminosity Snow
1788457857 34.44° C 54% 1018.2 hPa 0 mm - - -
1788457182 34.44° C 55% 1018.6 hPa 0 mm - - -
1788456520 35.56° C 51% 1018.6 hPa 0 mm - - -
1788455858 35° C 56% 1018.9 hPa 0 mm - - -
1788455195 35° C 57% 1018.9 hPa 0 mm - - -
1788454533 35.56° C 54% 1018.9 hPa 0 mm - - -
1788453870 34.44° C 58% 1019.3 hPa 0 mm - - -
1788453208 34.44° C 57% 1019.3 hPa 0 mm - - -
1788452545 33.89° C 58% 1019.3 hPa 0 mm - - -
1788451883 33.33° C 62% 1019.3 hPa 0 mm - - -
1788451220 32.78° C 61% 1019.6 hPa 0 mm - - -
1788450558 33.33° C 60% 1019.6 hPa 0 mm - - -
1788449896 33.33° C 62% 1019.3 hPa 0 mm - - -
1788449234 32.78° C 61% 1019.6 hPa 0 mm - - -
1788448571 32.22° C 64% 1019.6 hPa 0 mm - - -
1788447909 31.67° C 66% 1019.3 hPa 0 mm - - -
1788447246 31.11° C 74% 1019.3 hPa 0 mm - - -
1788446583 30° C 77% 1019.3 hPa 0 mm - - -
1788445921 29.44° C 80% 1019.3 hPa 0 mm - - -
1788445258 29.44° C 83% 1019.3 hPa 0 mm - - -
1788444596 28.89° C 89% 1019.3 hPa 0 mm - - -
1788443933 27.78° C 93% 1019.3 hPa 0 mm - - -
1788443271 27.22° C 99% 1019.3 hPa 0 mm - - -
1788442608 26.11° C 100% 1019.3 hPa 0 mm - - -
1788441945 25.56° C 100% 1019.3 hPa 0 mm - - -

* Rain latest hour (hover to see other rain measurements)
** Current wind speed in m/s (hover to see current wind gust speed)